createdAt,value
2022-12-25T00:03:34.935Z,11.18
2022-12-25T00:07:36.630Z,11.20
2022-12-25T00:11:38.181Z,11.17
2022-12-25T00:15:41.713Z,11.16
2022-12-25T00:19:43.503Z,11.13
2022-12-25T00:23:45.154Z,11.15
2022-12-25T00:27:46.860Z,11.16
2022-12-25T00:31:48.544Z,11.15
2022-12-25T00:36:00.593Z,11.12
2022-12-25T00:40:02.167Z,11.06
2022-12-25T00:44:03.735Z,11.08
2022-12-25T00:48:05.626Z,11.01
2022-12-25T00:52:07.722Z,10.91
2022-12-25T00:56:10.702Z,10.93
2022-12-25T01:00:12.765Z,10.89
2022-12-25T01:04:14.429Z,10.88
2022-12-25T01:08:15.959Z,10.89
2022-12-25T01:12:17.511Z,10.89
2022-12-25T01:16:21.950Z,10.89
2022-12-25T01:20:23.519Z,10.91
2022-12-25T01:24:25.069Z,10.91
2022-12-25T01:28:26.643Z,10.92
2022-12-25T01:32:28.454Z,10.93
2022-12-25T01:36:30.025Z,10.93
2022-12-25T01:40:34.330Z,10.90
2022-12-25T01:44:35.859Z,10.81
2022-12-25T01:48:39.349Z,10.74
2022-12-25T01:52:41.538Z,10.77
2022-12-25T01:56:53.984Z,10.69
2022-12-25T02:00:55.793Z,10.72
2022-12-25T02:05:05.543Z,10.77
2022-12-25T02:09:07.411Z,10.80
2022-12-25T02:13:09.415Z,10.79
2022-12-25T02:17:32.940Z,10.79
2022-12-25T02:21:53.010Z,10.77
2022-12-25T02:26:25.093Z,10.67
2022-12-25T02:30:28.407Z,10.47
2022-12-25T02:34:49.154Z,10.28
2022-12-25T02:39:14.823Z,10.09
2022-12-25T02:43:41.598Z,9.92
2022-12-25T02:48:01.805Z,9.79
2022-12-25T02:52:28.559Z,9.67
2022-12-25T02:56:50.304Z,9.59
2022-12-25T03:01:16.954Z,9.60
2022-12-25T03:05:42.219Z,9.66
2022-12-25T03:10:11.528Z,9.76
2022-12-25T03:14:32.080Z,9.84
2022-12-25T03:18:34.244Z,9.91
2022-12-25T03:22:55.412Z,9.95
2022-12-25T03:26:57.494Z,9.96
2022-12-25T03:31:27.021Z,9.89
2022-12-25T03:35:46.420Z,9.79
2022-12-25T03:40:21.337Z,9.67
2022-12-25T03:45:04.986Z,9.61
2022-12-25T03:49:40.225Z,9.64
2022-12-25T03:54:06.722Z,9.75
2022-12-25T03:58:37.749Z,9.87
2022-12-25T04:02:57.990Z,9.97
2022-12-25T04:07:18.578Z,10.09
2022-12-25T04:11:38.869Z,10.16
2022-12-25T04:15:59.104Z,10.28
2022-12-25T04:20:19.295Z,10.33
2022-12-25T04:24:39.270Z,10.40
2022-12-25T04:28:59.607Z,10.49
2022-12-25T04:33:20.770Z,10.57
2022-12-25T04:37:23.185Z,10.65
2022-12-25T04:41:24.742Z,10.72
2022-12-25T04:45:26.418Z,10.79
2022-12-25T04:49:28.124Z,10.85
2022-12-25T04:53:29.683Z,10.93
2022-12-25T04:57:31.501Z,10.94
2022-12-25T05:01:33.188Z,10.98
2022-12-25T05:05:34.821Z,11.01
2022-12-25T05:09:36.459Z,11.00
2022-12-25T05:13:38.736Z,10.98
2022-12-25T05:17:40.561Z,10.98
2022-12-25T05:21:42.163Z,11.00
2022-12-25T05:25:43.715Z,11.01
2022-12-25T05:29:45.384Z,11.01
2022-12-25T05:33:51.372Z,11.04
2022-12-25T05:37:53.037Z,11.03
2022-12-25T05:41:54.737Z,10.97
2022-12-25T05:45:56.406Z,10.96
2022-12-25T05:49:58.129Z,10.95
2022-12-25T05:53:59.782Z,10.93
2022-12-25T05:58:01.399Z,10.92
2022-12-25T06:02:03.173Z,10.90
2022-12-25T06:06:05.081Z,10.89
2022-12-25T06:10:07.398Z,10.87
2022-12-25T06:14:12.706Z,10.82
2022-12-25T06:18:14.252Z,10.81
2022-12-25T06:22:15.926Z,10.83
2022-12-25T06:26:19.593Z,10.83
2022-12-25T06:30:21.278Z,10.82
2022-12-25T06:34:23.439Z,10.82
2022-12-25T06:38:25.024Z,10.80
2022-12-25T06:42:26.616Z,10.80
2022-12-25T06:46:30.081Z,10.81
2022-12-25T06:50:31.678Z,10.80
2022-12-25T06:54:33.253Z,10.83
2022-12-25T06:58:34.835Z,10.85
2022-12-25T07:02:38.620Z,10.87
2022-12-25T07:06:40.332Z,10.86
2022-12-25T07:10:41.859Z,10.80
2022-12-25T07:14:44.990Z,10.81
2022-12-25T07:18:46.593Z,10.83
2022-12-25T07:22:48.198Z,10.83
2022-12-25T07:26:51.423Z,10.84
2022-12-25T07:30:53.680Z,10.81
2022-12-25T07:34:55.249Z,10.76
2022-12-25T07:38:57.309Z,10.73
2022-12-25T07:42:58.858Z,10.74
2022-12-25T07:47:00.416Z,10.76
2022-12-25T07:51:05.846Z,10.74
2022-12-25T07:55:07.696Z,10.71
2022-12-25T07:59:09.302Z,10.69
2022-12-25T08:03:50.561Z,10.59
2022-12-25T08:07:57.622Z,10.47
2022-12-25T08:11:59.662Z,10.52
2022-12-25T08:16:03.606Z,10.60
2022-12-25T08:20:06.008Z,10.60
2022-12-25T08:24:08.090Z,10.60
2022-12-25T08:28:09.677Z,10.66
2022-12-25T08:32:12.856Z,10.73
2022-12-25T08:36:14.577Z,10.81
2022-12-25T08:40:16.296Z,10.82
2022-12-25T08:44:17.925Z,10.90
2022-12-25T08:48:19.495Z,11.02
2022-12-25T08:52:21.375Z,11.11
2022-12-25T08:56:23.006Z,11.24
2022-12-25T09:00:24.542Z,11.37
2022-12-25T09:04:27.206Z,11.39
2022-12-25T09:08:28.896Z,11.37
2022-12-25T09:12:30.442Z,11.36
2022-12-25T09:16:32.998Z,11.29
2022-12-25T09:20:34.782Z,11.22
2022-12-25T09:24:36.405Z,11.17
2022-12-25T09:28:38.002Z,11.15
2022-12-25T09:32:40.401Z,11.26
2022-12-25T09:36:42.147Z,11.37
2022-12-25T09:40:43.721Z,11.48
2022-12-25T09:44:54.256Z,11.59
2022-12-25T09:49:06.186Z,11.67
2022-12-25T09:53:12.885Z,11.73
2022-12-25T09:57:15.278Z,11.76
2022-12-25T10:01:41.374Z,11.82
2022-12-25T10:06:18.023Z,12.02
2022-12-25T10:10:41.140Z,12.26
2022-12-25T10:14:56.791Z,12.36
2022-12-25T10:19:27.490Z,12.52
2022-12-25T10:23:49.283Z,12.66
2022-12-25T10:27:54.669Z,12.82
2022-12-25T10:31:56.796Z,12.97
2022-12-25T10:35:58.495Z,12.94
2022-12-25T10:40:00.163Z,12.95
2022-12-25T10:44:16.142Z,13.05
2022-12-25T10:48:24.952Z,13.15
2022-12-25T10:52:28.826Z,13.30
2022-12-25T10:56:30.751Z,13.26
2022-12-25T11:00:33.296Z,13.12
2022-12-25T11:04:37.469Z,12.98
2022-12-25T11:08:39.262Z,12.84
2022-12-25T11:12:44.777Z,12.73
2022-12-25T11:16:46.829Z,12.56
2022-12-25T11:20:53.314Z,12.41
2022-12-25T11:24:55.379Z,12.45
2022-12-25T11:28:57.949Z,12.42
2022-12-25T11:33:06.760Z,12.29
2022-12-25T11:37:17.865Z,12.20
2022-12-25T11:41:23.456Z,12.14
2022-12-25T11:45:33.277Z,12.17
2022-12-25T11:49:49.478Z,12.18
2022-12-25T11:53:54.903Z,12.15
2022-12-25T11:58:01.541Z,12.18
2022-12-25T12:02:25.155Z,12.24
2022-12-25T12:06:51.073Z,12.40
2022-12-25T12:11:19.466Z,12.62
2022-12-25T12:15:41.336Z,12.79
2022-12-25T12:19:43.187Z,13.02
2022-12-25T12:24:10.763Z,13.22
2022-12-25T12:28:24.342Z,13.41
2022-12-25T12:32:32.096Z,13.90
2022-12-25T12:36:36.766Z,14.30
2022-12-25T12:40:44.221Z,14.79
2022-12-25T12:44:46.531Z,15.08
2022-12-25T12:48:50.427Z,15.24
2022-12-25T12:52:52.212Z,15.03
2022-12-25T12:57:21.791Z,14.81
2022-12-25T13:01:26.617Z,14.71
2022-12-25T13:05:39.300Z,14.49
2022-12-25T13:10:08.556Z,14.38
2022-12-25T13:14:20.208Z,14.10
2022-12-25T13:18:22.022Z,13.96
2022-12-25T13:22:32.776Z,13.96
2022-12-25T13:26:35.055Z,13.88
2022-12-25T13:30:36.831Z,13.87
2022-12-25T13:34:43.242Z,13.93
2022-12-25T13:38:46.833Z,13.97
2022-12-25T13:43:29.843Z,14.06
2022-12-25T13:47:37.129Z,14.09
2022-12-25T13:51:38.866Z,14.11
2022-12-25T13:55:44.058Z,14.09
2022-12-25T14:00:04.457Z,14.10
2022-12-25T14:04:14.195Z,14.06
2022-12-25T14:08:22.052Z,13.95
2022-12-25T14:12:24.659Z,13.88
2022-12-25T14:16:27.220Z,13.89
2022-12-25T14:20:33.819Z,13.93
2022-12-25T14:24:35.424Z,13.97
2022-12-25T14:28:37.793Z,13.96
2022-12-25T14:32:44.651Z,13.94
2022-12-25T14:36:47.013Z,13.87
2022-12-25T14:40:58.761Z,13.81
2022-12-25T14:45:19.186Z,13.78
2022-12-25T14:49:24.748Z,13.72
2022-12-25T14:53:35.568Z,13.66
2022-12-25T14:57:40.583Z,13.64
2022-12-25T15:01:42.971Z,13.65
2022-12-25T15:05:44.765Z,13.68
2022-12-25T15:09:46.435Z,13.74
2022-12-25T15:13:48.010Z,13.81
2022-12-25T15:17:50.489Z,13.80
2022-12-25T15:21:52.320Z,13.78
2022-12-25T15:25:53.934Z,13.89
2022-12-25T15:30:11.308Z,13.91
2022-12-25T15:34:21.078Z,13.98
2022-12-25T15:38:22.717Z,13.95
2022-12-25T15:42:25.238Z,13.95
2022-12-25T15:46:27.059Z,13.88
2022-12-25T15:50:29.375Z,13.89
2022-12-25T15:54:32.126Z,13.90
2022-12-25T15:58:33.683Z,13.91
2022-12-25T16:02:35.363Z,13.89
2022-12-25T16:06:37.463Z,13.89
2022-12-25T16:10:40.483Z,13.90
2022-12-25T16:14:42.720Z,13.87
2022-12-25T16:18:47.670Z,13.86
2022-12-25T16:22:49.647Z,13.82
2022-12-25T16:26:51.184Z,13.75
2022-12-25T16:30:52.814Z,13.71
2022-12-25T16:34:54.392Z,13.62
2022-12-25T16:38:56.764Z,13.67
2022-12-25T16:42:58.467Z,13.59
2022-12-25T16:47:00.197Z,13.56
2022-12-25T16:51:08.272Z,13.55
2022-12-25T16:55:10.208Z,13.58
2022-12-25T16:59:11.923Z,13.57
2022-12-25T17:03:13.731Z,13.53
2022-12-25T17:07:17.269Z,13.50
2022-12-25T17:11:23.625Z,13.47
2022-12-25T17:15:25.193Z,13.39
2022-12-25T17:19:26.780Z,13.22
2022-12-25T17:23:28.432Z,13.18
2022-12-25T17:27:30.017Z,13.13
2022-12-25T17:31:31.903Z,13.08
2022-12-25T17:35:36.388Z,13.00
2022-12-25T17:39:38.649Z,12.98
2022-12-25T17:43:42.191Z,12.99
2022-12-25T17:47:43.761Z,13.08
2022-12-25T17:51:46.355Z,13.11
2022-12-25T17:55:48.026Z,13.15
2022-12-25T17:59:49.596Z,13.13
2022-12-25T18:03:52.283Z,13.04
2022-12-25T18:07:53.981Z,13.04
2022-12-25T18:11:55.880Z,12.99
2022-12-25T18:15:57.508Z,12.96
2022-12-25T18:19:59.249Z,12.98
2022-12-25T18:24:03.859Z,13.06
2022-12-25T18:28:05.399Z,13.10
2022-12-25T18:32:07.568Z,13.17
2022-12-25T18:36:11.853Z,13.17
2022-12-25T18:40:14.019Z,13.13
2022-12-25T18:44:15.729Z,13.18
2022-12-25T18:48:17.339Z,13.16
2022-12-25T18:52:48.080Z,13.15
2022-12-25T18:56:40.681Z,13.15
2022-12-25T19:00:42.304Z,13.17
2022-12-25T19:04:46.568Z,13.22
2022-12-25T19:08:48.724Z,13.22
2022-12-25T19:12:50.327Z,13.21
2022-12-25T19:16:52.877Z,13.17
2022-12-25T19:20:54.458Z,13.16
2022-12-25T19:24:56.029Z,13.14
2022-12-25T19:28:57.600Z,13.16
2022-12-25T19:32:59.248Z,13.15
2022-12-25T19:37:00.793Z,13.16
2022-12-25T19:41:11.473Z,13.14
2022-12-25T19:45:13.012Z,13.08
2022-12-25T19:49:14.826Z,13.03
2022-12-25T19:53:17.609Z,13.02
2022-12-25T19:57:19.060Z,12.92
2022-12-25T20:01:22.645Z,12.94
2022-12-25T20:05:24.242Z,12.88
2022-12-25T20:09:25.844Z,12.86
2022-12-25T20:13:27.488Z,12.87
2022-12-25T20:17:29.061Z,12.86
2022-12-25T20:21:30.839Z,12.85
2022-12-25T20:25:32.571Z,12.84
2022-12-25T20:29:34.109Z,12.84
2022-12-25T20:33:36.453Z,12.86
2022-12-25T20:37:38.109Z,12.88
2022-12-25T20:41:40.703Z,12.90
2022-12-25T20:45:42.528Z,12.91
2022-12-25T20:49:44.180Z,12.91
2022-12-25T20:53:46.206Z,12.92
2022-12-25T20:57:47.759Z,12.90
2022-12-25T21:01:49.586Z,12.94
2022-12-25T21:05:53.238Z,12.92
2022-12-25T21:09:54.832Z,12.94
2022-12-25T21:13:57.048Z,12.94
2022-12-25T21:17:58.687Z,12.97
2022-12-25T21:22:00.316Z,12.99
2022-12-25T21:26:13.572Z,12.99
2022-12-25T21:30:16.112Z,13.01
2022-12-25T21:34:18.343Z,13.08
2022-12-25T21:38:20.720Z,13.05
2022-12-25T21:42:22.424Z,13.09
2022-12-25T21:46:24.771Z,13.11
2022-12-25T21:50:45.355Z,13.09
2022-12-25T21:54:47.004Z,13.10
2022-12-25T21:58:48.748Z,13.13
2022-12-25T22:02:50.557Z,13.16
2022-12-25T22:07:20.395Z,13.15
2022-12-25T22:11:41.358Z,13.13
2022-12-25T22:16:01.423Z,13.13
2022-12-25T22:20:04.444Z,13.14
2022-12-25T22:24:08.206Z,13.15
2022-12-25T22:28:09.748Z,13.18
2022-12-25T22:32:13.261Z,13.19
2022-12-25T22:36:14.923Z,13.19
2022-12-25T22:40:18.977Z,13.19
2022-12-25T22:44:20.567Z,13.18
2022-12-25T22:48:22.095Z,13.16
2022-12-25T22:52:24.850Z,13.19
2022-12-25T22:56:26.367Z,13.19
2022-12-25T23:00:28.403Z,13.14
2022-12-25T23:04:30.146Z,13.15
2022-12-25T23:08:31.705Z,13.16
2022-12-25T23:12:51.896Z,13.12
2022-12-25T23:16:53.544Z,13.10
2022-12-25T23:21:18.979Z,13.09
2022-12-25T23:25:39.401Z,13.11
2022-12-25T23:29:41.267Z,13.10
2022-12-25T23:33:42.828Z,13.08
2022-12-25T23:37:45.117Z,13.14
2022-12-25T23:41:46.715Z,13.17
2022-12-25T23:45:48.324Z,13.15
2022-12-25T23:49:49.869Z,13.21
2022-12-25T23:53:51.692Z,13.20
2022-12-25T23:57:53.362Z,13.22
